createdAt,value
2018-09-19T00:00:29.514Z,65.70
2018-09-19T00:02:58.704Z,65.70
2018-09-19T00:05:27.484Z,65.50
2018-09-19T00:07:56.165Z,65.40
2018-09-19T00:10:24.707Z,65.40
2018-09-19T00:12:53.852Z,65.30
2018-09-19T00:15:27.661Z,65.10
2018-09-19T00:17:56.260Z,65.20
2018-09-19T00:20:24.846Z,65.10
2018-09-19T00:22:53.761Z,65.10
2018-09-19T00:25:22.369Z,65.20
2018-09-19T00:27:50.952Z,65.10
2018-09-19T00:30:19.848Z,65.10
2018-09-19T00:32:48.456Z,64.90
2018-09-19T00:35:17.319Z,65.10
2018-09-19T00:37:45.939Z,65.60
2018-09-19T00:40:14.632Z,66.00
2018-09-19T00:42:43.397Z,65.90
2018-09-19T00:45:12.132Z,66.20
2018-09-19T00:47:42.243Z,66.20
2018-09-19T00:50:10.809Z,66.30
2018-09-19T00:52:39.600Z,66.60
2018-09-19T00:55:08.350Z,66.80
2018-09-19T00:57:37.155Z,67.00
2018-09-19T01:00:05.775Z,66.80
2018-09-19T01:02:35.192Z,66.70
2018-09-19T01:05:03.776Z,66.40
2018-09-19T01:07:32.609Z,66.10
2018-09-19T01:10:01.148Z,65.90
2018-09-19T01:12:29.874Z,66.00
2018-09-19T01:14:59.650Z,66.10
2018-09-19T01:17:28.592Z,66.30
2018-09-19T01:19:57.167Z,66.30
2018-09-19T01:22:25.687Z,66.20
2018-09-19T01:24:54.380Z,66.20
2018-09-19T01:27:22.971Z,66.10
2018-09-19T01:29:51.553Z,65.90
2018-09-19T01:32:20.120Z,66.10
2018-09-19T01:34:48.682Z,66.30
2018-09-19T01:37:17.805Z,66.40
2018-09-19T01:39:46.412Z,66.40
2018-09-19T01:42:14.918Z,66.40
2018-09-19T01:44:43.723Z,66.30
2018-09-19T01:47:12.464Z,66.40
2018-09-19T01:49:41.834Z,66.40
2018-09-19T01:52:10.600Z,66.30
2018-09-19T01:54:39.239Z,66.20
2018-09-19T01:57:08.555Z,66.20
2018-09-19T01:59:37.379Z,66.30
2018-09-19T02:02:06.119Z,66.40
2018-09-19T02:04:36.120Z,66.40
2018-09-19T02:07:04.759Z,66.30
2018-09-19T02:09:33.288Z,66.50
2018-09-19T02:12:02.192Z,66.50
2018-09-19T02:14:31.460Z,66.50
2018-09-19T02:17:00.363Z,66.40
2018-09-19T02:19:29.108Z,66.00
2018-09-19T02:21:57.688Z,66.10
2018-09-19T02:24:26.283Z,66.20
2018-09-19T02:26:54.826Z,66.40
2018-09-19T02:29:23.620Z,66.90
2018-09-19T02:31:52.138Z,66.90
2018-09-19T02:34:20.683Z,66.70
2018-09-19T02:36:49.364Z,66.30
2018-09-19T02:39:17.960Z,66.30
2018-09-19T02:41:47.267Z,66.20
2018-09-19T02:44:15.829Z,66.50
2018-09-19T02:46:44.434Z,66.70
2018-09-19T02:49:12.979Z,66.80
2018-09-19T02:51:41.555Z,66.40
2018-09-19T02:54:10.143Z,66.60
2018-09-19T02:56:39.191Z,66.60
2018-09-19T02:59:08.411Z,66.50
2018-09-19T03:01:37.070Z,66.50
2018-09-19T03:04:06.043Z,66.70
2018-09-19T03:06:34.573Z,66.50
2018-09-19T03:09:03.491Z,66.60
2018-09-19T03:11:32.170Z,66.30
2018-09-19T03:14:00.777Z,66.20
2018-09-19T03:16:29.596Z,66.40
2018-09-19T03:18:58.176Z,66.30
2018-09-19T03:21:26.850Z,66.30
2018-09-19T03:23:55.383Z,66.60
2018-09-19T03:26:23.942Z,66.50
2018-09-19T03:28:53.847Z,66.40
2018-09-19T03:31:22.713Z,66.30
2018-09-19T03:33:51.701Z,66.50
2018-09-19T03:36:20.463Z,66.30
2018-09-19T03:38:48.999Z,65.90
2018-09-19T03:41:17.593Z,65.60
2018-09-19T03:43:46.790Z,65.30
2018-09-19T03:46:16.113Z,65.70
2018-09-19T03:48:45.491Z,65.40
2018-09-19T03:51:14.235Z,65.70
2018-09-19T03:53:43.072Z,65.90
2018-09-19T03:56:11.663Z,66.00
2018-09-19T03:58:40.348Z,66.10
2018-09-19T04:01:09.041Z,66.10
2018-09-19T04:03:37.718Z,66.20
2018-09-19T04:06:06.303Z,65.90
2018-09-19T04:08:35.027Z,65.90
2018-09-19T04:11:04.142Z,66.10
2018-09-19T04:13:33.940Z,66.00
2018-09-19T04:16:03.035Z,66.00
2018-09-19T04:18:31.577Z,66.00
2018-09-19T04:21:00.608Z,65.90
2018-09-19T04:23:29.909Z,65.90
2018-09-19T04:25:59.931Z,66.00
2018-09-19T04:28:28.716Z,66.30
2018-09-19T04:30:57.307Z,66.10
2018-09-19T04:33:26.059Z,65.80
2018-09-19T04:35:54.861Z,65.50
2018-09-19T04:38:23.473Z,65.40
2018-09-19T04:40:52.452Z,65.30
2018-09-19T04:43:21.095Z,65.20
2018-09-19T04:45:50.196Z,65.30
2018-09-19T04:48:19.227Z,65.70
2018-09-19T04:50:47.777Z,66.00
2018-09-19T04:53:16.650Z,65.60
2018-09-19T04:55:45.180Z,65.60
2018-09-19T04:58:13.744Z,65.40
2018-09-19T05:00:42.845Z,65.40
2018-09-19T05:03:11.911Z,65.90
2018-09-19T05:05:41.515Z,66.40
2018-09-19T05:08:10.467Z,66.30
2018-09-19T05:10:39.285Z,66.10
2018-09-19T05:13:08.583Z,66.40
2018-09-19T05:15:37.774Z,66.20
2018-09-19T05:18:07.642Z,66.40
2018-09-19T05:20:36.268Z,66.50
2018-09-19T05:23:05.308Z,66.30
2018-09-19T05:25:34.665Z,66.40
2018-09-19T05:28:03.500Z,66.80
2018-09-19T05:30:32.141Z,66.80
2018-09-19T05:33:01.443Z,66.70
2018-09-19T05:35:30.866Z,67.00
2018-09-19T05:37:59.843Z,66.80
2018-09-19T05:40:28.534Z,66.80
2018-09-19T05:42:58.428Z,66.80
2018-09-19T05:45:28.098Z,67.00
2018-09-19T05:47:57.340Z,66.80
2018-09-19T05:50:26.322Z,66.60
2018-09-19T05:52:54.974Z,66.30
2018-09-19T05:55:23.871Z,66.40
2018-09-19T05:57:52.688Z,66.50
2018-09-19T06:00:21.583Z,66.10
2018-09-19T06:02:50.272Z,66.30
2018-09-19T06:05:20.226Z,66.50
2018-09-19T06:07:49.271Z,66.70
2018-09-19T06:10:18.434Z,66.60
2018-09-19T06:12:47.150Z,66.70
2018-09-19T06:15:16.499Z,66.60
2018-09-19T06:17:45.534Z,67.10
2018-09-19T06:20:14.438Z,67.10
2018-09-19T06:22:43.198Z,66.80
2018-09-19T06:25:11.780Z,66.50
2018-09-19T06:27:40.611Z,66.80
2018-09-19T06:30:09.256Z,67.10
2018-09-19T06:32:38.424Z,67.10
2018-09-19T06:35:07.063Z,66.30
2018-09-19T06:37:36.778Z,66.50
2018-09-19T06:40:05.604Z,66.80
2018-09-19T06:42:34.955Z,66.40
2018-09-19T06:45:03.760Z,66.10
2018-09-19T06:47:32.524Z,66.20
2018-09-19T06:50:01.155Z,66.40
2018-09-19T06:52:30.226Z,66.40
2018-09-19T06:54:58.864Z,66.20
2018-09-19T06:57:27.920Z,66.30
2018-09-19T06:59:56.992Z,66.20
2018-09-19T07:02:26.541Z,66.10
2018-09-19T07:04:55.452Z,65.80
2018-09-19T07:07:24.171Z,65.70
2018-09-19T07:09:53.019Z,65.50
2018-09-19T07:12:21.951Z,65.40
2018-09-19T07:14:50.554Z,65.50
2018-09-19T07:17:19.284Z,65.30
2018-09-19T07:19:48.145Z,65.40
2018-09-19T07:22:16.818Z,65.00
2018-09-19T07:24:45.364Z,64.20
2018-09-19T07:27:15.532Z,64.00
2018-09-19T07:29:44.548Z,63.50
2018-09-19T07:32:13.914Z,63.00
2018-09-19T07:34:42.525Z,62.60
2018-09-19T07:37:11.132Z,62.10
2018-09-19T07:39:40.770Z,61.80
2018-09-19T07:42:10.604Z,61.30
2018-09-19T07:44:39.819Z,61.50
2018-09-19T07:47:08.990Z,60.50
2018-09-19T07:49:38.260Z,60.10
2018-09-19T07:52:07.592Z,59.80
2018-09-19T07:54:36.222Z,59.60
2018-09-19T07:57:06.322Z,59.50
2018-09-19T07:59:35.022Z,59.40
2018-09-19T08:02:03.877Z,59.00
2018-09-19T08:04:34.264Z,59.00
2018-09-19T08:07:02.866Z,58.80
2018-09-19T08:09:32.002Z,58.50
2018-09-19T08:12:00.731Z,58.10
2018-09-19T08:14:30.553Z,58.00
2018-09-19T08:16:59.852Z,57.70
2018-09-19T08:19:31.349Z,57.40
2018-09-19T08:22:00.703Z,57.20
2018-09-19T08:24:31.610Z,57.10
2018-09-19T08:27:02.322Z,57.20
2018-09-19T08:29:32.136Z,56.90
2018-09-19T08:32:01.543Z,56.90
2018-09-19T08:34:30.426Z,57.00
2018-09-19T08:37:00.979Z,57.00
2018-09-19T08:39:30.696Z,57.00
2018-09-19T08:42:00.374Z,56.90
2018-09-19T08:44:29.473Z,56.80
2018-09-19T08:47:00.020Z,56.60
2018-09-19T08:49:30.035Z,56.40
2018-09-19T08:51:59.589Z,56.40
2018-09-19T08:54:28.523Z,56.30
2018-09-19T08:56:58.963Z,56.50
2018-09-19T08:59:28.825Z,56.50
2018-09-19T09:02:00.068Z,56.70
2018-09-19T09:04:28.860Z,56.70
2018-09-19T09:06:58.096Z,56.60
2018-09-19T09:09:28.828Z,56.60
2018-09-19T09:11:59.737Z,56.50
2018-09-19T09:14:29.841Z,56.60
2018-09-19T09:17:00.791Z,56.70
2018-09-19T09:19:29.930Z,56.80
2018-09-19T09:21:59.172Z,56.70
2018-09-19T09:24:28.127Z,56.80
2018-09-19T09:26:57.866Z,56.70
2018-09-19T09:29:27.849Z,56.80
2018-09-19T09:31:58.842Z,56.60
2018-09-19T09:34:27.592Z,56.60
2018-09-19T09:36:57.067Z,56.40
2018-09-19T09:39:26.398Z,56.10
2018-09-19T09:41:56.119Z,56.00
2018-09-19T09:44:26.112Z,56.10
2018-09-19T09:46:55.796Z,56.00
2018-09-19T09:49:24.945Z,55.90
2018-09-19T09:51:55.055Z,55.90
2018-09-19T09:54:25.068Z,55.70
2018-09-19T09:56:54.622Z,55.60
2018-09-19T09:59:23.903Z,55.50
2018-09-19T10:01:53.471Z,55.50
2018-09-19T10:04:22.363Z,55.20
2018-09-19T10:06:52.683Z,53.20
2018-09-19T10:09:22.005Z,52.40
2018-09-19T10:11:51.047Z,52.20
2018-09-19T10:14:20.343Z,52.60
2018-09-19T10:16:50.342Z,52.90
2018-09-19T10:19:19.618Z,53.00
2018-09-19T10:21:48.715Z,53.50
2018-09-19T10:24:18.125Z,53.50
2018-09-19T10:26:47.371Z,52.70
2018-09-19T10:29:16.502Z,52.50
2018-09-19T10:31:45.819Z,52.30
2018-09-19T10:34:15.325Z,52.60
2018-09-19T10:36:45.635Z,51.70
2018-09-19T10:39:15.043Z,51.90
2018-09-19T10:41:44.495Z,52.70
2018-09-19T10:44:13.567Z,52.70
2018-09-19T10:46:42.862Z,52.60
2018-09-19T10:49:11.529Z,52.30
2018-09-19T10:51:40.194Z,52.30
2018-09-19T10:54:09.098Z,52.20
2018-09-19T10:56:37.874Z,51.90
2018-09-19T10:59:07.062Z,52.10
2018-09-19T11:01:36.137Z,52.30
2018-09-19T11:04:05.090Z,52.30
2018-09-19T11:06:34.180Z,52.20
2018-09-19T11:09:02.948Z,51.90
2018-09-19T11:11:32.148Z,51.80
2018-09-19T11:14:00.834Z,51.90
2018-09-19T11:16:30.328Z,51.80
2018-09-19T11:18:59.591Z,51.90
2018-09-19T11:21:28.916Z,51.20
2018-09-19T11:23:57.591Z,51.40
2018-09-19T11:26:26.370Z,51.40
2018-09-19T11:28:55.454Z,51.10
2018-09-19T11:31:24.085Z,51.60
2018-09-19T11:33:53.314Z,51.30
2018-09-19T11:36:23.300Z,51.70
2018-09-19T11:38:53.431Z,51.20
2018-09-19T11:41:22.144Z,51.50
2018-09-19T11:43:52.123Z,51.50
2018-09-19T11:46:21.428Z,51.50
2018-09-19T11:48:50.520Z,51.50
2018-09-19T11:51:19.142Z,51.70
2018-09-19T11:53:48.112Z,51.60
2018-09-19T11:56:17.402Z,51.90
2018-09-19T11:58:46.576Z,51.30
2018-09-19T12:01:16.352Z,51.50
2018-09-19T12:03:45.065Z,51.60
2018-09-19T12:06:13.989Z,51.30
2018-09-19T12:08:43.172Z,51.40
2018-09-19T12:11:12.195Z,51.60
2018-09-19T12:13:41.273Z,51.80
2018-09-19T12:16:10.265Z,51.50
2018-09-19T12:18:39.611Z,52.10
2018-09-19T12:21:08.319Z,51.40
2018-09-19T12:23:37.700Z,51.50
2018-09-19T12:26:07.459Z,51.40
2018-09-19T12:28:36.225Z,51.40
2018-09-19T12:31:04.969Z,51.40
2018-09-19T12:33:34.146Z,51.20
2018-09-19T12:36:03.814Z,51.20
2018-09-19T12:38:33.103Z,51.20
2018-09-19T12:41:03.456Z,51.10
2018-09-19T12:43:32.049Z,51.70
2018-09-19T12:46:01.580Z,51.20
2018-09-19T12:48:30.381Z,51.40
2018-09-19T12:51:00.303Z,51.70
2018-09-19T12:53:29.907Z,51.70
2018-09-19T12:56:00.005Z,51.40
2018-09-19T12:58:28.693Z,51.40
2018-09-19T13:00:57.632Z,51.10
2018-09-19T13:03:26.165Z,51.30
2018-09-19T13:05:55.060Z,51.10
2018-09-19T13:08:25.434Z,50.90
2018-09-19T13:10:55.861Z,50.20
2018-09-19T13:13:25.035Z,50.50
2018-09-19T13:15:53.720Z,50.50
2018-09-19T13:18:22.666Z,51.10
2018-09-19T13:20:52.241Z,51.40
2018-09-19T13:23:20.992Z,51.40
2018-09-19T13:25:49.900Z,51.30
2018-09-19T13:28:19.282Z,51.40
2018-09-19T13:30:48.675Z,51.00
2018-09-19T13:33:17.734Z,50.90
2018-09-19T13:35:46.331Z,51.00
2018-09-19T13:38:15.119Z,50.80
2018-09-19T13:40:43.694Z,51.20
2018-09-19T13:43:12.601Z,51.20
2018-09-19T13:45:41.940Z,50.90
2018-09-19T13:48:11.066Z,50.10
2018-09-19T13:50:56.987Z,50.40
2018-09-19T13:53:25.897Z,50.40
2018-09-19T13:55:55.115Z,50.60
2018-09-19T13:58:24.058Z,50.80
2018-09-19T14:00:52.620Z,51.00
2018-09-19T14:03:21.636Z,51.20
2018-09-19T14:05:50.252Z,51.40
2018-09-19T14:08:19.088Z,51.20
2018-09-19T14:10:48.032Z,51.30
2018-09-19T14:13:19.591Z,50.70
2018-09-19T14:15:48.376Z,51.30
2018-09-19T14:18:17.409Z,50.30
2018-09-19T14:20:45.965Z,50.80
2018-09-19T14:23:14.826Z,50.70
2018-09-19T14:25:43.487Z,50.20
2018-09-19T14:28:12.356Z,50.50
2018-09-19T14:30:41.291Z,50.70
2018-09-19T14:33:13.946Z,50.80
2018-09-19T14:35:43.143Z,50.80
2018-09-19T14:38:13.616Z,51.10
2018-09-19T14:40:42.787Z,51.10
2018-09-19T14:43:12.204Z,51.20
2018-09-19T14:45:40.816Z,51.20
2018-09-19T14:48:09.588Z,51.20
2018-09-19T14:50:38.159Z,51.20
2018-09-19T14:53:07.037Z,51.40
2018-09-19T14:55:35.673Z,50.70
2018-09-19T14:58:04.922Z,51.50
2018-09-19T15:00:33.601Z,51.80
2018-09-19T15:03:02.513Z,51.00
2018-09-19T15:05:31.084Z,51.30
2018-09-19T15:07:59.708Z,51.50
2018-09-19T15:10:29.152Z,51.80
2018-09-19T15:12:58.332Z,51.80
2018-09-19T15:15:27.169Z,50.80
2018-09-19T15:17:56.516Z,51.20
2018-09-19T15:20:25.582Z,51.20
2018-09-19T15:22:54.648Z,51.20
2018-09-19T15:25:23.344Z,51.20
2018-09-19T15:27:52.291Z,51.00
2018-09-19T15:30:21.576Z,51.30
2018-09-19T15:32:50.428Z,51.40
2018-09-19T15:35:19.105Z,50.30
2018-09-19T15:37:47.734Z,50.00
2018-09-19T15:40:16.632Z,50.70
2018-09-19T15:42:46.379Z,50.90
2018-09-19T15:45:14.982Z,50.70
2018-09-19T15:47:43.592Z,50.60
2018-09-19T15:50:12.211Z,50.90
2018-09-19T15:52:40.765Z,51.20
2018-09-19T15:55:10.032Z,50.40
2018-09-19T15:57:38.613Z,50.70
2018-09-19T16:00:07.854Z,51.10
2018-09-19T16:02:36.943Z,51.10
2018-09-19T16:05:05.625Z,51.20
2018-09-19T16:07:35.593Z,50.90
2018-09-19T16:10:04.306Z,51.50
2018-09-19T16:12:32.847Z,51.40
2018-09-19T16:15:01.449Z,51.50
2018-09-19T16:17:30.280Z,51.60
2018-09-19T16:19:59.152Z,51.40
2018-09-19T16:22:28.179Z,51.70
2018-09-19T16:24:57.344Z,51.60
2018-09-19T16:27:26.052Z,51.80
2018-09-19T16:29:55.467Z,51.90
2018-09-19T16:32:24.121Z,51.80
2018-09-19T16:34:53.275Z,51.90
2018-09-19T16:37:22.954Z,52.00
2018-09-19T16:39:52.294Z,52.40
2018-09-19T16:42:20.934Z,52.50
2018-09-19T16:44:49.602Z,52.80
2018-09-19T16:47:18.632Z,52.90
2018-09-19T16:49:48.141Z,53.00
2018-09-19T16:52:17.238Z,53.10
2018-09-19T16:54:46.132Z,53.20
2018-09-19T16:57:15.122Z,53.20
2018-09-19T16:59:44.647Z,53.30
2018-09-19T17:02:13.240Z,53.40
2018-09-19T17:04:41.876Z,53.60
2018-09-19T17:07:10.474Z,53.60
2018-09-19T17:09:39.037Z,53.80
2018-09-19T17:12:07.700Z,54.00
2018-09-19T17:14:36.602Z,54.20
2018-09-19T17:17:06.000Z,54.30
2018-09-19T17:19:34.860Z,54.70
2018-09-19T17:22:03.873Z,54.90
2018-09-19T17:24:32.916Z,54.90
2018-09-19T17:27:01.553Z,55.00
2018-09-19T17:29:30.566Z,55.40
2018-09-19T17:31:59.684Z,55.60
2018-09-19T17:34:29.712Z,55.90
2018-09-19T17:36:58.414Z,56.20
2018-09-19T17:39:27.592Z,56.20
2018-09-19T17:41:56.383Z,56.30
2018-09-19T17:44:25.200Z,56.40
2018-09-19T17:46:54.575Z,56.50
2018-09-19T17:49:23.738Z,56.80
2018-09-19T17:51:52.334Z,56.90
2018-09-19T17:54:20.895Z,57.30
2018-09-19T17:56:50.267Z,57.10
2018-09-19T17:59:18.955Z,57.10
2018-09-19T18:01:48.540Z,57.10
2018-09-19T18:04:17.512Z,57.80
2018-09-19T18:06:46.120Z,57.30
2018-09-19T18:09:15.572Z,57.50
2018-09-19T18:11:44.823Z,57.60
2018-09-19T18:14:13.799Z,57.60
2018-09-19T18:16:42.363Z,57.80
2018-09-19T18:19:11.006Z,57.80
2018-09-19T18:21:39.598Z,57.90
2018-09-19T18:24:08.438Z,57.90
2018-09-19T18:26:37.719Z,58.50
2018-09-19T18:29:06.350Z,58.80
2018-09-19T18:31:35.056Z,58.60
2018-09-19T18:34:03.981Z,58.40
2018-09-19T18:36:32.766Z,58.60
2018-09-19T18:39:01.452Z,58.80
2018-09-19T18:41:30.179Z,59.00
2018-09-19T18:44:04.699Z,59.30
2018-09-19T18:46:33.249Z,59.60
2018-09-19T18:49:02.650Z,59.90
2018-09-19T18:51:31.356Z,60.00
2018-09-19T18:54:00.057Z,60.10
2018-09-19T18:56:28.653Z,60.30
2018-09-19T18:58:57.551Z,60.40
2018-09-19T19:01:27.359Z,60.30
2018-09-19T19:03:55.930Z,60.40
2018-09-19T19:06:24.530Z,60.70
2018-09-19T19:08:53.372Z,60.70
2018-09-19T19:11:22.040Z,61.00
2018-09-19T19:13:50.931Z,61.00
2018-09-19T19:16:19.767Z,61.00
2018-09-19T19:18:48.710Z,61.10
2018-09-19T19:21:17.181Z,61.20
2018-09-19T19:23:45.867Z,61.30
2018-09-19T19:26:14.525Z,61.20
2018-09-19T19:28:43.331Z,61.40
2018-09-19T19:31:12.007Z,61.20
2018-09-19T19:33:40.919Z,61.90
2018-09-19T19:36:09.591Z,61.40
2018-09-19T19:38:38.318Z,61.40
2018-09-19T19:41:06.939Z,61.50
2018-09-19T19:43:35.520Z,61.60
2018-09-19T19:46:04.051Z,61.70
2018-09-19T19:48:32.838Z,62.30
2018-09-19T19:51:01.442Z,61.60
2018-09-19T19:53:30.555Z,61.70
2018-09-19T19:55:59.155Z,61.70
2018-09-19T19:58:28.508Z,61.80
2018-09-19T20:00:57.146Z,61.80
2018-09-19T20:03:25.920Z,62.00
2018-09-19T20:05:54.505Z,61.80
2018-09-19T20:08:23.543Z,62.00
2018-09-19T20:10:52.195Z,62.20
2018-09-19T20:13:21.109Z,62.30
2018-09-19T20:15:49.984Z,62.30
2018-09-19T20:18:18.657Z,62.50
2018-09-19T20:20:47.339Z,63.20
2018-09-19T20:23:16.535Z,62.40
2018-09-19T20:25:45.339Z,62.50
2018-09-19T20:28:15.142Z,62.60
2018-09-19T20:30:44.309Z,62.70
2018-09-19T20:33:13.019Z,62.60
2018-09-19T20:35:43.742Z,62.60
2018-09-19T20:38:12.607Z,62.60
2018-09-19T20:40:44.519Z,62.80
2018-09-19T20:43:14.764Z,62.80
2018-09-19T20:45:45.591Z,62.80
2018-09-19T20:48:16.209Z,62.90
2018-09-19T20:50:46.136Z,63.10
2018-09-19T20:53:15.045Z,63.20
2018-09-19T20:55:44.342Z,63.20
2018-09-19T20:58:13.735Z,63.30
2018-09-19T21:00:43.034Z,63.70
2018-09-19T21:03:12.540Z,63.60
2018-09-19T21:05:41.647Z,63.60
2018-09-19T21:08:11.230Z,63.50
2018-09-19T21:10:40.340Z,63.60
2018-09-19T21:13:09.435Z,63.60
2018-09-19T21:15:38.226Z,63.60
2018-09-19T21:18:07.223Z,63.70
2018-09-19T21:20:36.577Z,63.60
2018-09-19T21:23:06.033Z,63.60
2018-09-19T21:25:35.183Z,63.50
2018-09-19T21:28:04.843Z,63.30
2018-09-19T21:30:33.778Z,63.00
2018-09-19T21:33:04.109Z,62.80
2018-09-19T21:35:33.002Z,62.80
2018-09-19T21:38:01.695Z,62.90
2018-09-19T21:40:30.351Z,62.80
2018-09-19T21:42:58.858Z,63.10
2018-09-19T21:45:27.773Z,63.30
2018-09-19T21:47:56.365Z,63.60
2018-09-19T21:50:25.041Z,63.60
2018-09-19T21:52:53.804Z,63.80
2018-09-19T21:55:22.873Z,63.60
2018-09-19T21:57:51.804Z,63.40
2018-09-19T22:00:20.919Z,63.90
2018-09-19T22:02:49.854Z,63.70
2018-09-19T22:05:18.706Z,63.10
2018-09-19T22:07:47.351Z,63.40
2018-09-19T22:10:16.256Z,63.50
2018-09-19T22:12:44.880Z,63.40
2018-09-19T22:15:13.447Z,63.60
2018-09-19T22:17:42.068Z,63.50
2018-09-19T22:20:11.010Z,63.30
2018-09-19T22:22:39.727Z,63.90
2018-09-19T22:25:09.041Z,64.70
2018-09-19T22:27:37.700Z,64.90
2018-09-19T22:30:07.335Z,65.30
2018-09-19T22:32:36.147Z,65.20
2018-09-19T22:35:04.780Z,65.20
2018-09-19T22:37:33.980Z,65.30
2018-09-19T22:40:02.914Z,65.40
2018-09-19T22:42:31.975Z,65.40
2018-09-19T22:45:00.719Z,65.40
2018-09-19T22:47:29.826Z,65.60
2018-09-19T22:49:59.115Z,65.50
2018-09-19T22:52:27.948Z,65.60
2018-09-19T22:54:56.548Z,65.50
2018-09-19T22:57:25.173Z,65.60
2018-09-19T22:59:53.730Z,65.60
2018-09-19T23:02:23.185Z,65.70
2018-09-19T23:04:52.258Z,65.80
2018-09-19T23:07:20.872Z,65.90
2018-09-19T23:09:49.667Z,65.80
2018-09-19T23:12:18.280Z,65.90
2018-09-19T23:14:46.878Z,65.90
2018-09-19T23:17:15.725Z,65.90
2018-09-19T23:19:44.395Z,65.70
2018-09-19T23:22:12.935Z,65.80
2018-09-19T23:24:41.609Z,65.80
2018-09-19T23:27:10.213Z,66.00
2018-09-19T23:29:38.852Z,65.90
2018-09-19T23:32:07.439Z,65.70
2018-09-19T23:34:36.045Z,65.60
2018-09-19T23:37:04.646Z,65.60
2018-09-19T23:39:33.234Z,65.40
2018-09-19T23:42:01.897Z,65.40
2018-09-19T23:44:30.901Z,65.60
2018-09-19T23:46:59.474Z,65.40
2018-09-19T23:49:28.268Z,65.90
2018-09-19T23:51:56.852Z,66.10
2018-09-19T23:54:25.452Z,66.30
2018-09-19T23:56:54.122Z,66.30
2018-09-19T23:59:22.669Z,66.20
